createdAt,value
2018-07-12T16:43:33.821Z,37.8
2018-07-12T16:44:23.889Z,37.8
2018-07-12T16:45:13.472Z,37.7
2018-07-12T16:46:04.016Z,37.6
2018-07-12T16:46:53.795Z,37.5
2018-07-12T16:47:44.193Z,37.4
2018-07-12T16:49:18.299Z,37.3
2018-07-12T16:50:08.576Z,37.2
2018-07-12T16:50:58.375Z,37.1
2018-07-12T16:51:48.440Z,37
2018-07-12T16:52:38.777Z,36.9
2018-07-12T16:53:28.853Z,36.8
2018-07-12T16:54:18.940Z,36.7
2018-07-12T16:55:08.990Z,36.6
2018-07-12T16:55:58.756Z,36.5
2018-07-12T16:56:48.551Z,36.4
2018-07-12T16:57:39.163Z,36.3
2018-07-12T16:58:29.228Z,36.3
2018-07-12T16:59:19.292Z,36.1
2018-07-12T17:00:09.081Z,36.1
2018-07-12T17:00:59.133Z,35.9
2018-07-12T17:01:49.212Z,35.9
2018-07-12T17:02:39.557Z,35.8
2018-07-12T17:03:29.606Z,35.7
2018-07-12T17:04:19.671Z,35.6
2018-07-12T17:05:09.745Z,35.5
2018-07-12T17:05:59.525Z,35.4
2018-07-12T17:06:49.937Z,35.3
2018-07-12T17:07:40.099Z,35.3
2018-07-12T17:08:30.005Z,35.1
2018-07-12T17:09:19.796Z,35.1
2018-07-12T17:10:10.125Z,34.9
2018-07-12T17:11:00.210Z,34.8
2018-07-12T17:11:50.259Z,34.8
2018-07-12T17:12:40.327Z,34.7
2018-07-12T17:13:30.112Z,34.6
2018-07-12T17:14:20.447Z,34.5
2018-07-12T17:15:09.961Z,34.4
2018-07-12T17:16:00.590Z,34.3
2018-07-12T17:16:50.363Z,34.3
2018-07-12T17:17:40.693Z,34.2
2018-07-12T17:18:30.767Z,34.1
2018-07-12T17:19:20.538Z,34
2018-07-12T17:20:10.902Z,33.9
2018-07-12T17:21:00.949Z,33.8
2018-07-12T17:21:51.016Z,33.8
2018-07-12T17:22:40.819Z,33.6
2018-07-12T17:23:31.163Z,33.6
2018-07-12T17:24:21.205Z,33.4
2018-07-12T17:25:11.001Z,33.4
2018-07-12T17:26:01.407Z,33.3
2018-07-12T17:26:51.148Z,33.3
2018-07-12T17:27:41.478Z,33.1
2018-07-12T17:28:31.535Z,33.1
2018-07-12T17:29:21.606Z,33
2018-07-12T17:30:11.673Z,32.9
2018-07-12T17:31:01.887Z,32.8
2018-07-12T17:31:51.789Z,32.8
2018-07-12T17:32:41.852Z,32.6
2018-07-12T17:33:31.846Z,32.6
2018-07-12T17:34:21.719Z,32.5
2018-07-12T17:35:12.045Z,32.4
2018-07-12T17:36:01.835Z,32.4
2018-07-12T17:36:52.174Z,32.3
2018-07-12T17:37:41.967Z,32.2
2018-07-12T17:38:32.332Z,32.1
2018-07-12T17:39:22.369Z,32
2018-07-12T17:40:12.449Z,31.9
2018-07-12T17:41:02.674Z,31.9
2018-07-12T17:41:52.556Z,31.8
2018-07-12T17:42:42.353Z,31.8
2018-07-12T17:43:32.713Z,31.6
2018-07-12T17:44:22.757Z,31.6
2018-07-12T17:45:12.816Z,31.5
2018-07-12T17:46:02.609Z,31.4
2018-07-12T17:46:52.959Z,31.4
2018-07-12T17:47:43.273Z,31.3
2018-07-12T17:48:33.091Z,31.2
2018-07-12T17:49:23.139Z,31.1
2018-07-12T17:50:13.201Z,31.1
2018-07-12T17:51:03.289Z,31
2018-07-12T17:51:53.374Z,30.9
2018-07-12T17:52:43.388Z,30.8
2018-07-12T17:53:33.449Z,30.8
2018-07-12T17:54:23.546Z,30.8
2018-07-12T17:55:13.585Z,30.7
2018-07-12T17:56:03.746Z,30.6
2018-07-12T17:56:53.715Z,30.5
2018-07-12T17:57:43.494Z,30.4
2018-07-12T17:58:33.843Z,30.4
2018-07-12T17:59:23.908Z,30.3
2018-07-12T18:00:13.968Z,30.3
2018-07-12T18:01:03.755Z,30.2
2018-07-12T18:01:54.103Z,30.1
2018-07-12T18:02:44.165Z,30.1
2018-07-12T18:03:34.221Z,30
2018-07-12T18:04:24.287Z,29.9
2018-07-12T18:05:14.849Z,29.9
2018-07-12T18:06:04.422Z,29.8
2018-07-12T18:06:54.481Z,29.8
2018-07-12T18:07:44.546Z,29.7
2018-07-12T18:08:34.330Z,29.6
2018-07-12T18:09:24.693Z,29.5
2018-07-12T18:10:14.810Z,29.4
2018-07-12T18:11:04.809Z,29.3
2018-07-12T18:11:54.875Z,29.3
2018-07-12T18:12:44.943Z,29.2
2018-07-12T18:13:34.724Z,29.1
2018-07-12T18:14:25.527Z,29
2018-07-12T18:15:15.128Z,28.9
2018-07-12T18:16:05.194Z,28.9
2018-07-12T18:16:55.282Z,28.8
2018-07-12T18:17:45.049Z,28.7
2018-07-12T18:18:35.373Z,28.6
2018-07-12T18:19:25.467Z,28.5
2018-07-12T18:20:15.513Z,28.4
2018-07-12T18:21:05.294Z,28.3
2018-07-12T18:21:56.412Z,28.3
2018-07-12T18:22:45.423Z,28.2
2018-07-12T18:23:35.771Z,28.1
2018-07-12T18:24:25.830Z,28
2018-07-12T18:25:15.612Z,27.9
2018-07-12T18:26:56.033Z,27.8
2018-07-12T18:27:46.077Z,27.7
2018-07-12T18:28:35.860Z,27.6
2018-07-12T18:29:26.224Z,27.6
2018-07-12T18:30:16.281Z,27.5
2018-07-12T18:31:06.346Z,27.4
2018-07-12T18:31:56.404Z,27.3
2018-07-12T18:32:46.466Z,27.3
2018-07-12T18:33:36.542Z,27.1
2018-07-12T18:34:26.597Z,27.1
2018-07-12T18:35:16.595Z,27
2018-07-12T18:36:06.762Z,26.9
2018-07-12T18:36:56.786Z,26.9
2018-07-12T18:37:46.590Z,26.8
2018-07-12T18:38:36.927Z,26.8
2018-07-12T18:39:26.973Z,26.7
2018-07-12T18:40:17.048Z,26.6
2018-07-12T18:41:07.116Z,26.5
2018-07-12T18:41:57.172Z,26.4
2018-07-12T18:42:47.234Z,26.4
2018-07-12T18:43:37.578Z,26.3
2018-07-12T18:44:27.361Z,26.3
2018-07-12T18:45:17.196Z,26.2
2018-07-12T18:46:07.223Z,26.1
2018-07-12T18:46:57.560Z,26.1
2018-07-12T18:47:47.613Z,25.9
2018-07-12T18:48:37.685Z,25.9
2018-07-12T18:49:27.742Z,25.8
2018-07-12T18:50:17.530Z,25.8
2018-07-12T18:51:07.880Z,25.7
2018-07-12T18:51:57.938Z,25.6
2018-07-12T18:52:47.738Z,25.6
2018-07-12T18:53:38.070Z,25.5
2018-07-12T18:54:28.131Z,25.4
2018-07-12T18:55:18.245Z,25.4
2018-07-12T18:56:08.266Z,25.3
2018-07-12T18:56:58.329Z,25.3
2018-07-12T18:57:48.385Z,25.2
2018-07-12T18:58:38.443Z,25.1
2018-07-12T18:59:28.513Z,25.1
2018-07-12T19:00:18.587Z,25
2018-07-12T19:01:08.637Z,24.9
2018-07-12T19:01:58.724Z,24.9
2018-07-12T19:02:48.769Z,24.8
2018-07-12T19:03:38.837Z,24.8
2018-07-12T19:04:28.899Z,24.7
2018-07-12T19:05:18.998Z,24.6
2018-07-12T19:06:09.026Z,24.6
2018-07-12T19:06:59.115Z,24.6
2018-07-12T19:07:49.152Z,24.5
2018-07-12T19:08:39.444Z,24.4
2018-07-12T19:09:29.026Z,24.4
2018-07-12T19:10:19.388Z,24.3
2018-07-12T19:11:09.426Z,24.3
2018-07-12T19:11:59.496Z,24.2
2018-07-12T19:12:49.532Z,24.2
2018-07-12T19:13:39.605Z,24.1
2018-07-12T19:14:29.665Z,24.1
2018-07-12T19:15:19.952Z,24
2018-07-12T19:16:09.795Z,23.9
2018-07-12T19:16:59.870Z,23.9
2018-07-12T19:17:49.917Z,23.8
2018-07-12T19:18:40.007Z,23.8
2018-07-12T19:19:30.057Z,23.8
2018-07-12T19:20:20.169Z,23.7
2018-07-12T19:21:10.240Z,23.6
2018-07-12T19:22:00.251Z,23.6
2018-07-12T19:22:50.321Z,23.5
2018-07-12T19:23:40.379Z,23.5
2018-07-12T19:24:30.448Z,23.4
2018-07-12T19:25:20.501Z,23.4
2018-07-12T19:26:10.590Z,23.3
2018-07-12T19:27:00.650Z,23.3
2018-07-12T19:27:50.697Z,23.3
2018-07-12T19:28:40.479Z,23.2
2018-07-12T19:29:30.847Z,23.1
2018-07-12T19:30:20.894Z,23.1
2018-07-12T19:31:10.749Z,23.1
2018-07-12T19:32:01.033Z,23
2018-07-12T19:32:51.083Z,22.9
2018-07-12T19:33:41.467Z,22.9
2018-07-12T19:34:30.937Z,22.9
2018-07-12T19:35:21.308Z,22.8
2018-07-12T19:36:11.358Z,22.8
2018-07-12T19:37:01.405Z,22.8
2018-07-12T19:37:51.463Z,22.7
2018-07-12T19:38:41.522Z,22.7
2018-07-12T19:39:31.309Z,22.6
2018-07-12T19:40:21.665Z,22.6
2018-07-12T19:41:11.726Z,22.6
2018-07-12T19:42:01.805Z,22.5
2018-07-12T19:42:51.570Z,22.4
2018-07-12T19:43:41.916Z,22.4
2018-07-12T19:44:31.983Z,22.4
2018-07-12T19:45:22.054Z,22.3
2018-07-12T19:46:11.821Z,22.3
2018-07-12T19:47:02.172Z,22.3
2018-07-12T19:47:52.244Z,22.2
2018-07-12T19:48:42.286Z,22.2
2018-07-12T19:49:32.360Z,22.1
2018-07-12T19:50:22.426Z,22.1
2018-07-12T19:51:12.481Z,22.1
2018-07-12T19:52:02.280Z,22.1
2018-07-12T19:52:52.609Z,22
2018-07-12T19:53:42.676Z,21.9
2018-07-12T19:54:32.759Z,21.9
2018-07-12T19:55:22.808Z,21.9
2018-07-12T19:56:12.873Z,21.9
2018-07-12T19:57:02.652Z,21.8
2018-07-12T19:57:52.743Z,21.8
2018-07-12T19:58:43.075Z,21.8
2018-07-12T19:59:33.128Z,21.8
2018-07-12T20:00:23.219Z,21.7
2018-07-12T20:01:12.986Z,21.7
2018-07-12T20:02:03.331Z,21.6
2018-07-12T20:02:53.384Z,21.6
2018-07-12T20:03:43.574Z,21.6
2018-07-12T20:04:33.548Z,21.6
2018-07-12T20:05:23.313Z,21.5
2018-07-12T20:06:13.163Z,21.5
2018-07-12T20:07:03.717Z,21.4
2018-07-12T20:07:53.793Z,21.4
2018-07-12T20:08:43.837Z,21.4
2018-07-12T20:09:33.910Z,21.4
2018-07-12T20:10:23.964Z,21.4
2018-07-12T20:11:14.029Z,21.3
2018-07-12T20:12:04.093Z,21.3
2018-07-12T20:12:54.181Z,21.3
2018-07-12T20:13:44.217Z,21.3
2018-07-12T20:14:34.275Z,21.2
2018-07-12T20:15:24.079Z,21.2
2018-07-12T20:18:44.604Z,21.1
2018-07-12T20:19:34.668Z,21.1
2018-07-12T20:20:24.735Z,21
2018-07-12T20:21:14.821Z,21
2018-07-12T20:22:04.864Z,21
2018-07-12T20:22:54.922Z,20.9
2018-07-12T20:23:44.988Z,20.9
2018-07-12T20:24:34.767Z,20.9
2018-07-12T20:25:25.551Z,20.9
2018-07-12T20:26:15.390Z,20.8
2018-07-12T20:27:05.241Z,20.8
2018-07-12T20:27:55.040Z,20.8
2018-07-12T20:28:45.369Z,20.8
2018-07-12T20:29:35.432Z,20.8
2018-07-12T20:30:25.494Z,20.7
2018-07-12T20:31:16.013Z,20.7
2018-07-12T20:32:05.341Z,20.7
2018-07-12T20:32:55.711Z,20.6
2018-07-12T20:33:45.790Z,20.6
2018-07-12T20:34:35.270Z,20.6
2018-07-12T20:35:25.619Z,20.6
2018-07-12T20:36:15.680Z,20.6
2018-07-12T20:37:06.014Z,20.6
2018-07-12T20:37:55.820Z,20.5
2018-07-12T20:38:45.601Z,20.5
2018-07-12T20:39:36.207Z,20.4
2018-07-12T20:40:26.274Z,20.4
2018-07-12T20:41:16.046Z,20.4
2018-07-12T20:42:06.401Z,20.4
2018-07-12T20:42:56.478Z,20.4
2018-07-12T20:43:46.529Z,20.3
2018-07-12T20:44:36.594Z,20.3
2018-07-12T20:45:26.662Z,20.3
2018-07-12T20:46:16.735Z,20.3
2018-07-12T20:47:06.776Z,20.3
2018-07-12T20:47:56.899Z,20.2
2018-07-12T20:48:46.924Z,20.2
2018-07-12T20:49:36.968Z,20.2
2018-07-12T20:50:26.767Z,20.1
2018-07-12T20:51:17.088Z,20.1
2018-07-12T20:52:07.165Z,20.1
2018-07-12T20:52:57.243Z,20.1
2018-07-12T20:53:47.309Z,20
2018-07-12T20:54:37.574Z,20
2018-07-12T20:55:27.413Z,19.9
2018-07-12T20:56:17.480Z,19.9
2018-07-12T20:57:07.540Z,19.9
2018-07-12T20:57:57.331Z,19.9
2018-07-12T20:58:47.662Z,19.9
2018-07-12T20:59:37.180Z,19.8
2018-07-12T21:00:27.546Z,19.8
2018-07-12T21:01:17.896Z,19.8
2018-07-12T21:02:07.975Z,19.8
2018-07-12T21:02:57.717Z,19.8
2018-07-12T21:03:48.096Z,19.7
2018-07-12T21:04:38.158Z,19.7
2018-07-12T21:05:28.190Z,19.7
2018-07-12T21:06:18.249Z,19.6
2018-07-12T21:07:08.032Z,19.6
2018-07-12T21:07:58.380Z,19.6
2018-07-12T21:08:48.439Z,19.6
2018-07-12T21:09:38.500Z,19.5
2018-07-12T21:10:28.596Z,19.5
2018-07-12T21:11:18.653Z,19.5
2018-07-12T21:12:08.697Z,19.4
2018-07-12T21:12:58.752Z,19.4
2018-07-12T21:13:48.824Z,19.4
2018-07-12T21:14:38.884Z,19.4
2018-07-12T21:15:29.171Z,19.4
2018-07-12T21:16:19.035Z,19.3
2018-07-12T21:17:09.085Z,19.3
2018-07-12T21:17:58.881Z,19.3
2018-07-12T21:18:48.927Z,19.3
2018-07-12T21:19:39.303Z,19.3
2018-07-12T21:20:29.352Z,19.2
2018-07-12T21:21:19.421Z,19.2
2018-07-12T21:22:09.473Z,19.2
2018-07-12T21:22:59.527Z,19.1
2018-07-12T21:23:49.690Z,19.1
2018-07-12T21:24:39.729Z,19.1
2018-07-12T21:25:29.716Z,19.1
2018-07-12T21:26:19.807Z,19.1
2018-07-12T21:27:09.575Z,19
2018-07-12T21:27:59.634Z,19
2018-07-12T21:28:49.695Z,18.9
2018-07-12T21:29:40.042Z,18.9
2018-07-12T21:30:30.211Z,18.9
2018-07-12T21:31:20.177Z,18.9
2018-07-12T21:32:09.974Z,18.9
2018-07-12T21:33:00.299Z,18.8
2018-07-12T21:33:50.378Z,18.8
2018-07-12T21:34:40.163Z,18.8
2018-07-12T21:35:30.498Z,18.8
2018-07-12T21:36:20.007Z,18.8
2018-07-12T21:39:40.813Z,18.6
2018-07-12T21:40:30.883Z,18.6
2018-07-12T21:41:20.963Z,18.6
2018-07-12T21:42:10.734Z,18.6
2018-07-12T21:43:01.077Z,18.6
2018-07-12T21:43:51.121Z,18.5
2018-07-12T21:44:41.207Z,18.5
2018-07-12T21:45:31.248Z,18.5
2018-07-12T21:46:21.340Z,18.4
2018-07-12T21:47:11.378Z,18.4
2018-07-12T21:48:01.478Z,18.4
2018-07-12T21:48:51.508Z,18.4
2018-07-12T21:49:41.289Z,18.4
2018-07-12T21:50:31.639Z,18.3
2018-07-12T21:51:21.711Z,18.3
2018-07-12T21:52:11.772Z,18.3
2018-07-12T21:53:01.825Z,18.3
2018-07-12T21:53:51.898Z,18.3
2018-07-12T21:54:41.960Z,18.3
2018-07-12T21:55:32.032Z,18.2
2018-07-12T21:56:22.080Z,18.2
2018-07-12T21:57:11.888Z,18.2
2018-07-12T21:58:02.216Z,18.2
2018-07-12T21:58:52.279Z,18.1
2018-07-12T21:59:42.359Z,18.1
2018-07-12T22:00:32.411Z,18.1
2018-07-12T22:01:22.490Z,18.1
2018-07-12T22:02:12.255Z,18.1
2018-07-12T22:03:02.044Z,18.1
2018-07-12T22:03:52.664Z,18.1
2018-07-12T22:04:42.744Z,18
2018-07-12T22:05:32.810Z,18
2018-07-12T22:06:22.607Z,17.9
2018-07-12T22:07:12.924Z,17.9
2018-07-12T22:08:02.817Z,17.9
2018-07-12T22:08:53.052Z,17.9
2018-07-12T22:09:42.834Z,17.9
2018-07-12T22:10:33.187Z,17.9
2018-07-12T22:11:22.953Z,17.9
2018-07-12T22:12:13.328Z,17.9
2018-07-12T22:13:03.369Z,17.8
2018-07-12T22:13:53.578Z,17.8
2018-07-12T22:14:43.507Z,17.8
2018-07-12T22:15:33.558Z,17.8
2018-07-12T22:16:23.623Z,17.8
2018-07-12T22:17:13.677Z,17.8
2018-07-12T22:18:03.746Z,17.8
2018-07-12T22:18:53.527Z,17.7
2018-07-12T22:19:43.896Z,17.7
2018-07-12T22:20:33.927Z,17.7
2018-07-12T22:21:23.729Z,17.7
2018-07-12T22:22:14.061Z,17.7
2018-07-12T22:23:03.840Z,17.6
2018-07-12T22:23:54.192Z,17.6
2018-07-12T22:24:43.985Z,17.6
2018-07-12T22:25:34.319Z,17.6
2018-07-12T22:26:23.822Z,17.6
2018-07-12T22:27:14.447Z,17.6
2018-07-12T22:28:04.327Z,17.6
2018-07-12T22:28:54.571Z,17.5
2018-07-12T22:29:44.631Z,17.5
2018-07-12T22:30:34.954Z,17.5
2018-07-12T22:31:24.757Z,17.4
2018-07-12T22:32:14.821Z,17.4
2018-07-12T22:33:04.911Z,17.4
2018-07-12T22:33:54.961Z,17.4
2018-07-12T22:34:45.038Z,17.4
2018-07-12T22:35:35.105Z,17.4
2018-07-12T22:36:25.186Z,17.4
2018-07-12T22:37:15.235Z,17.3
2018-07-12T22:38:04.999Z,17.3
2018-07-12T22:38:55.347Z,17.3
2018-07-12T22:39:45.418Z,17.3
2018-07-12T22:40:35.474Z,17.3
2018-07-12T22:41:25.250Z,17.3
2018-07-12T22:42:15.599Z,17.3
2018-07-12T22:43:05.394Z,17.3
2018-07-12T22:43:55.456Z,17.2
2018-07-12T22:44:45.228Z,17.2
2018-07-12T22:45:35.290Z,17.2
2018-07-12T22:46:25.938Z,17.2
2018-07-12T22:47:15.700Z,17.1
2018-07-12T22:48:06.265Z,17.1
2018-07-12T22:48:56.809Z,17.1
2018-07-12T22:49:46.176Z,17.1
2018-07-12T22:50:36.251Z,17.1
2018-07-12T22:51:26.322Z,17.1
2018-07-12T22:52:16.380Z,17.1
2018-07-12T22:53:06.168Z,17.1
2018-07-12T22:53:56.514Z,17.1
2018-07-12T22:58:06.831Z,16.9
2018-07-12T22:58:56.589Z,16.9
2018-07-12T22:59:46.942Z,16.9
2018-07-12T23:00:36.716Z,16.9
2018-07-12T23:01:26.797Z,16.9
2018-07-12T23:02:17.144Z,16.9
2018-07-12T23:03:07.210Z,16.9
2018-07-12T23:03:57.254Z,16.9
2018-07-12T23:04:47.053Z,16.9
2018-07-12T23:05:37.105Z,16.9
2018-07-12T23:06:27.210Z,16.9
2018-07-12T23:07:17.528Z,16.9
2018-07-12T23:08:07.580Z,16.8
2018-07-12T23:08:57.652Z,16.8
2018-07-12T23:09:47.144Z,16.8
2018-07-12T23:10:37.488Z,16.8
2018-07-12T23:11:27.843Z,16.8
2018-07-12T23:12:17.891Z,16.8
2018-07-12T23:13:07.957Z,16.8
2018-07-12T23:13:58.030Z,16.8
2018-07-12T23:14:48.094Z,16.8
2018-07-12T23:15:38.155Z,16.8
2018-07-12T23:16:28.231Z,16.8
2018-07-12T23:17:18.288Z,16.8
2018-07-12T23:18:08.377Z,16.8
2018-07-12T23:18:58.415Z,16.7
2018-07-12T23:19:48.474Z,16.7
2018-07-12T23:20:38.553Z,16.7
2018-07-12T23:21:28.625Z,16.7
2018-07-12T23:22:18.681Z,16.7
2018-07-12T23:23:08.456Z,16.7
2018-07-12T23:23:58.800Z,16.7
2018-07-12T23:24:49.155Z,16.7
2018-07-12T23:25:39.273Z,16.7
2018-07-12T23:26:28.993Z,16.7
2018-07-12T23:27:19.038Z,16.6
2018-07-12T23:28:09.105Z,16.7
2018-07-12T23:28:59.173Z,16.6
2018-07-12T23:29:49.260Z,16.7
2018-07-12T23:30:39.301Z,16.6
2018-07-12T23:31:29.095Z,16.6
2018-07-12T23:32:19.422Z,16.6
2018-07-12T23:33:09.497Z,16.6
2018-07-12T23:33:59.616Z,16.6
2018-07-12T23:34:49.615Z,16.6
2018-07-12T23:35:39.670Z,16.6
2018-07-12T23:36:29.741Z,16.6
2018-07-12T23:37:19.803Z,16.6
2018-07-12T23:38:09.586Z,16.6
2018-07-12T23:38:59.950Z,16.6
2018-07-12T23:39:49.983Z,16.6
2018-07-12T23:40:39.497Z,16.6
2018-07-12T23:41:29.854Z,16.6
2018-07-12T23:42:20.208Z,16.6
2018-07-12T23:43:10.257Z,16.6
2018-07-12T23:44:00.315Z,16.6
2018-07-12T23:44:50.399Z,16.6
2018-07-12T23:45:40.179Z,16.6
2018-07-12T23:46:30.222Z,16.6
2018-07-12T23:47:20.012Z,16.5
2018-07-12T23:48:10.385Z,16.5
2018-07-12T23:49:00.442Z,16.6
2018-07-12T23:49:50.488Z,16.5
2018-07-12T23:50:40.562Z,16.5
2018-07-12T23:51:30.898Z,16.5
2018-07-12T23:52:20.959Z,16.5
2018-07-12T23:53:11.011Z,16.5
2018-07-12T23:54:01.109Z,16.5
2018-07-12T23:54:51.147Z,16.4
2018-07-12T23:55:40.962Z,16.4
2018-07-12T23:56:31.004Z,16.4
2018-07-12T23:57:21.353Z,16.4
2018-07-12T23:58:11.127Z,16.4
2018-07-12T23:59:01.479Z,16.4
2018-07-12T23:59:51.584Z,16.4
